Terminal Aerodrome Forecast
Issued by NWS

Home | Current Version | Previous Version | Text Only | Print | Product List | Glossary On
Versions: 1 2 3 4 5 6 7 8 9 10 11 12 13
000
FTUS45 KTFX 200500
TAFCTB
TAF
KCTB 200539Z 2006/2106 24015KT P6SM SCT060 OVC090
     FM201000 22012KT P6SM SCT120
     FM201800 25015KT P6SM SCT060 OVC080=

USA.gov is the U.S. government's official web portal to all federal, state and local government web resources and services.